Time;durP1;ratioP1;P1;durP2;ratioP2;P2;SDS_P1;SDS_P2;PMS_P1;PMS_P2;Temp;Humidity;BMP_temperature;BMP_pressure;BME280_temperature;BME280_humidity;BME280_pressure;Samples;Min_cycle;Max_cycle;Signal;HPM_P1;HPM_P2
2021/04/01 00:00:08;;;;;;;27.67;16.75;;;15.30;60.60;;;;;;5046907;28;20045;-84
2021/04/01 00:02:33;;;;;;;26.02;14.50;;;15.20;61.20;;;;;;5032906;28;20431;-83
2021/04/01 00:04:59;;;;;;;25.08;14.82;;;15.10;61.60;;;;;;5047484;28;20477;-84
2021/04/01 00:07:25;;;;;;;23.70;13.65;;;15.10;62.00;;;;;;5031454;28;20049;-84
2021/04/01 00:09:50;;;;;;;26.67;15.50;;;15.10;62.20;;;;;;5014525;28;20053;-83
2021/04/01 00:12:16;;;;;;;24.65;14.15;;;15.00;62.30;;;;;;5031142;28;20021;-83
2021/04/01 00:14:42;;;;;;;24.63;14.85;;;15.00;62.60;;;;;;5016281;28;20052;-83
2021/04/01 00:17:08;;;;;;;25.08;14.48;;;15.00;63.00;;;;;;5030049;28;20029;-84
2021/04/01 00:19:34;;;;;;;24.63;14.68;;;14.90;63.40;;;;;;5032267;28;20465;-83
2021/04/01 00:22:00;;;;;;;25.77;15.35;;;14.90;63.80;;;;;;5047565;28;20029;-83
2021/04/01 00:24:26;;;;;;;23.92;15.63;;;14.90;63.90;;;;;;5030518;28;20532;-83
2021/04/01 00:26:51;;;;;;;26.77;16.48;;;14.90;64.00;;;;;;5045537;28;20029;-83
2021/04/01 00:29:17;;;;;;;26.38;15.38;;;14.90;64.00;;;;;;5044084;28;20465;-83
2021/04/01 00:31:42;;;;;;;30.08;16.23;;;14.90;64.20;;;;;;5046638;28;20079;-83
2021/04/01 00:34:08;;;;;;;25.10;16.02;;;14.90;64.30;;;;;;5031876;28;20507;-83
2021/04/01 00:36:34;;;;;;;28.50;16.38;;;15.00;64.40;;;;;;5032145;28;20025;-83
2021/04/01 00:38:59;;;;;;;25.92;16.08;;;15.00;64.50;;;;;;5047258;28;20113;-83
2021/04/01 00:41:24;;;;;;;27.92;15.85;;;15.00;64.50;;;;;;5030546;28;20037;-84
2021/04/01 00:43:50;;;;;;;31.13;17.55;;;15.10;64.40;;;;;;5045073;28;20029;-83
2021/04/01 00:46:16;;;;;;;29.88;17.25;;;15.10;64.50;;;;;;5031887;28;20018;-84
2021/04/01 00:48:41;;;;;;;29.08;17.73;;;15.10;64.70;;;;;;5046121;28;20201;-83
2021/04/01 00:51:07;;;;;;;29.15;17.90;;;15.00;64.70;;;;;;5030277;28;20040;-83
2021/04/01 00:53:32;;;;;;;32.33;18.23;;;15.00;64.70;;;;;;5030657;28;20021;-83
2021/04/01 00:55:58;;;;;;;32.10;18.38;;;15.00;64.60;;;;;;5045330;28;20022;-84
2021/04/01 00:58:24;;;;;;;28.77;17.17;;;15.00;64.40;;;;;;5031780;28;20100;-84
2021/04/01 01:01:06;;;;;;;27.30;16.75;;;15.00;64.50;;;;;;5042659;28;20388;-84
2021/04/01 01:03:32;;;;;;;29.77;16.40;;;15.00;64.70;;;;;;5042178;28;20030;-83
2021/04/01 01:05:58;;;;;;;38.47;21.27;;;15.00;65.00;;;;;;5030470;28;20028;-83
2021/04/01 01:08:23;;;;;;;41.83;24.30;;;15.00;66.00;;;;;;5044551;28;20017;-83
2021/04/01 01:10:49;;;;;;;45.30;26.35;;;15.00;66.90;;;;;;5031596;28;20388;-83
2021/04/01 01:13:14;;;;;;;48.45;27.25;;;14.80;67.00;;;;;;5030541;28;20398;-83
2021/04/01 01:15:40;;;;;;;48.83;29.42;;;14.50;67.30;;;;;;5031568;28;20499;-83
2021/04/01 01:18:05;;;;;;;38.78;23.52;;;14.40;67.90;;;;;;5030536;28;20037;-83
2021/04/01 01:20:32;;;;;;;36.30;20.70;;;14.50;68.00;;;;;;5045841;28;20022;-83
2021/04/01 01:22:58;;;;;;;41.70;25.35;;;14.50;68.00;;;;;;5044262;28;20025;-83
2021/04/01 01:25:24;;;;;;;39.90;22.65;;;14.50;68.50;;;;;;5031296;28;20048;-83
2021/04/01 01:27:50;;;;;;;31.17;19.30;;;14.50;68.50;;;;;;5031577;28;20021;-84
2021/04/01 01:30:19;;;;;;;32.55;19.67;;;14.50;68.70;;;;;;5030385;28;20025;-84
2021/04/01 01:32:48;;;;;;;33.28;19.45;;;14.40;69.60;;;;;;5013146;28;20057;-83
2021/04/01 01:35:17;;;;;;;32.72;19.00;;;14.30;70.30;;;;;;5030400;28;20469;-84
2021/04/01 01:38:04;;;;;;;39.72;22.67;;;14.20;70.70;;;;;;5029871;28;20052;-84
2021/04/01 01:40:31;;;;;;;42.50;24.48;;;14.00;71.30;;;;;;5016443;28;20497;-83
2021/04/01 01:42:58;;;;;;;39.72;23.83;;;13.90;72.40;;;;;;5030261;28;20029;-83
2021/04/01 01:45:25;;;;;;;38.95;21.58;;;13.90;72.40;;;;;;5044836;28;20026;-84
2021/04/01 01:47:51;;;;;;;35.47;20.30;;;14.00;72.00;;;;;;5029988;28;20013;-83
2021/04/01 01:50:19;;;;;;;36.15;19.88;;;14.10;71.70;;;;;;5045648;28;20056;-83
2021/04/01 01:52:45;;;;;;;46.78;27.83;;;14.20;71.50;;;;;;5045854;28;20014;-84
2021/04/01 01:55:12;;;;;;;48.58;27.55;;;14.10;72.60;;;;;;5044453;28;20049;-83
2021/04/01 01:57:38;;;;;;;44.80;25.27;;;13.90;73.70;;;;;;5018194;28;20412;-84
2021/04/01 02:00:10;;;;;;;38.00;22.50;;;13.80;74.40;;;;;;5031357;28;20025;-83
2021/04/01 02:02:37;;;;;;;35.42;22.33;;;13.70;74.40;;;;;;5031389;28;20531;-83
2021/04/01 02:05:07;;;;;;;35.05;19.75;;;13.80;74.30;;;;;;5016738;28;20512;-83
2021/04/01 02:07:33;;;;;;;32.30;19.25;;;13.90;74.20;;;;;;5029996;28;20028;-83
2021/04/01 02:09:59;;;;;;;35.35;20.58;;;13.90;74.00;;;;;;5031261;28;20044;-83
2021/04/01 02:12:24;;;;;;;36.03;20.65;;;14.00;74.10;;;;;;5031347;28;20469;-83
2021/04/01 02:14:50;;;;;;;27.52;17.15;;;14.00;74.10;;;;;;5048479;28;20374;-83
2021/04/01 02:17:21;;;;;;;34.70;19.65;;;14.00;74.30;;;;;;5034647;28;20033;-84
2021/04/01 02:19:47;;;;;;;32.42;17.83;;;14.00;74.70;;;;;;5017836;28;20485;-83
2021/04/01 02:22:12;;;;;;;27.15;16.80;;;14.00;74.90;;;;;;5044750;28;20029;-84
2021/04/01 02:24:38;;;;;;;28.80;17.27;;;14.00;75.10;;;;;;5030735;28;20017;-83
2021/04/01 02:27:04;;;;;;;27.63;16.55;;;14.00;75.30;;;;;;5033219;28;20100;-83
2021/04/01 02:29:30;;;;;;;25.95;16.20;;;13.90;75.40;;;;;;5034419;28;20025;-83
2021/04/01 02:31:55;;;;;;;22.63;14.40;;;13.90;75.60;;;;;;5033268;28;20105;-83
2021/04/01 02:34:21;;;;;;;27.05;16.92;;;13.90;76.10;;;;;;5047661;28;20029;-84
2021/04/01 02:36:46;;;;;;;32.08;18.30;;;13.80;76.30;;;;;;5019993;28;20025;-83
2021/04/01 02:39:13;;;;;;;30.75;17.15;;;13.90;76.50;;;;;;5032983;28;20392;-84
2021/04/01 02:41:38;;;;;;;27.67;17.38;;;13.90;76.50;;;;;;5019106;28;20057;-83
2021/04/01 02:44:04;;;;;;;26.30;15.85;;;13.90;76.70;;;;;;5032848;28;20084;-83
2021/04/01 02:46:30;;;;;;;29.10;15.98;;;13.90;76.70;;;;;;5032780;28;20017;-83
2021/04/01 02:48:56;;;;;;;24.15;14.70;;;13.80;77.00;;;;;;5032961;28;20381;-84
2021/04/01 02:51:21;;;;;;;27.20;15.95;;;13.70;77.20;;;;;;5034137;28;20530;-83
2021/04/01 02:53:47;;;;;;;26.25;15.95;;;13.70;77.20;;;;;;5048707;28;20036;-83
2021/04/01 02:56:12;;;;;;;31.73;18.23;;;13.70;76.90;;;;;;5030882;28;20079;-83
2021/04/01 02:58:38;;;;;;;46.90;26.58;;;13.60;76.90;;;;;;5032555;28;20017;-83
2021/04/01 03:01:05;;;;;;;50.10;26.65;;;13.60;76.80;;;;;;5033881;28;20131;-83
2021/04/01 03:03:34;;;;;;;50.17;29.55;;;13.60;76.30;;;;;;5047819;28;20022;-83
2021/04/01 03:06:01;;;;;;;56.33;29.30;;;13.60;75.90;;;;;;5016444;28;20018;-83
2021/04/01 03:08:27;;;;;;;43.95;23.83;;;13.60;75.40;;;;;;5032285;28;20025;-83
2021/04/01 03:10:53;;;;;;;44.72;24.25;;;13.60;75.10;;;;;;5027403;28;20021;-83
2021/04/01 03:13:19;;;;;;;41.20;23.27;;;13.70;74.80;;;;;;5032384;28;20021;-83
2021/04/01 03:15:44;;;;;;;40.00;22.92;;;13.70;74.60;;;;;;5032216;28;20491;-84
2021/04/01 03:18:10;;;;;;;42.28;22.65;;;13.70;74.30;;;;;;5033525;28;20021;-83
2021/04/01 03:20:35;;;;;;;38.25;21.27;;;13.70;74.10;;;;;;5047812;28;20024;-83
2021/04/01 03:23:01;;;;;;;40.80;22.10;;;13.70;74.10;;;;;;5048308;28;20056;-83
2021/04/01 03:25:26;;;;;;;39.72;20.45;;;13.70;73.90;;;;;;5031064;28;20024;-84
2021/04/01 03:27:52;;;;;;;40.08;21.30;;;13.80;73.70;;;;;;5029458;28;20092;-83
2021/04/01 03:30:18;;;;;;;35.25;19.10;;;13.80;73.40;;;;;;5046685;28;20017;-83
2021/04/01 03:32:46;;;;;;;33.88;19.17;;;13.80;73.20;;;;;;5033409;28;20022;-83
2021/04/01 03:35:22;;;;;;;30.67;17.50;;;13.80;73.00;;;;;;5047462;28;20021;-83
2021/04/01 03:37:51;;;;;;;33.20;19.23;;;13.90;73.00;;;;;;5046828;28;20033;-83
2021/04/01 03:40:17;;;;;;;32.97;18.87;;;13.80;73.20;;;;;;5033238;28;20113;-84
2021/04/01 03:42:42;;;;;;;32.95;19.40;;;13.70;73.10;;;;;;5044807;28;20059;-83
2021/04/01 03:45:11;;;;;;;32.00;18.25;;;13.70;73.60;;;;;;5033027;28;20040;-83
2021/04/01 03:47:38;;;;;;;28.90;17.27;;;13.70;74.60;;;;;;5033064;28;20473;-83
2021/04/01 03:50:05;;;;;;;29.77;17.92;;;13.60;74.30;;;;;;5033090;28;20095;-83
2021/04/01 03:52:30;;;;;;;31.38;18.95;;;13.50;74.80;;;;;;5032687;28;20036;-83
2021/04/01 03:55:00;;;;;;;30.52;17.80;;;13.40;75.20;;;;;;5030828;28;20029;-83
2021/04/01 03:57:25;;;;;;;36.17;20.10;;;13.40;75.50;;;;;;5044862;28;20503;-83
2021/04/01 04:00:10;;;;;;;36.95;21.48;;;13.20;75.40;;;;;;5046586;28;20025;-83
2021/04/01 04:08:13;;;;;;;36.92;19.92;;;13.00;75.80;;;;;;5033058;28;20535;-83
2021/04/01 04:10:45;;;;;;;38.10;20.55;;;13.00;75.80;;;;;;5030637;28;20017;-83
2021/04/01 04:15:37;;;;;;;36.67;20.88;;;12.90;75.80;;;;;;5032450;28;20024;-84
2021/04/01 04:18:03;;;;;;;38.50;21.98;;;12.90;75.80;;;;;;5015799;28;20030;-83
2021/04/01 04:20:28;;;;;;;36.70;20.65;;;12.80;75.80;;;;;;5031889;28;20033;-83
2021/04/01 04:22:54;;;;;;;36.60;20.00;;;12.70;75.90;;;;;;5047656;28;20396;-84
2021/04/01 04:25:20;;;;;;;39.13;22.05;;;12.60;76.20;;;;;;5032120;28;20519;-83
2021/04/01 04:28:04;;;;;;;41.78;22.58;;;12.50;76.40;;;;;;5032413;28;20480;-84
2021/04/01 04:30:29;;;;;;;39.83;21.13;;;12.50;76.60;;;;;;5045623;28;20028;-83
2021/04/01 04:32:56;;;;;;;39.47;22.00;;;12.50;77.00;;;;;;5046221;28;20104;-83
2021/04/01 04:35:22;;;;;;;39.28;21.83;;;12.40;77.30;;;;;;5032072;28;20045;-83
2021/04/01 04:37:48;;;;;;;36.55;21.48;;;12.50;77.20;;;;;;5030799;28;20021;-84
2021/04/01 04:40:14;;;;;;;43.13;23.77;;;12.40;77.20;;;;;;5047019;28;20124;-83
2021/04/01 04:42:39;;;;;;;41.05;21.90;;;12.40;77.90;;;;;;5030810;28;20022;-83
2021/04/01 04:45:07;;;;;;;36.92;20.40;;;12.40;78.00;;;;;;5045107;28;20141;-83
2021/04/01 04:47:32;;;;;;;33.33;18.27;;;12.30;78.10;;;;;;5031953;28;20018;-83
2021/04/01 04:49:58;;;;;;;33.03;18.75;;;12.20;78.10;;;;;;5032206;28;20137;-83
2021/04/01 04:52:23;;;;;;;33.80;19.83;;;12.10;78.60;;;;;;5030765;28;20014;-83
2021/04/01 04:54:49;;;;;;;30.50;17.50;;;12.00;78.80;;;;;;5028367;28;20055;-83
2021/04/01 04:57:30;;;;;;;30.77;17.15;;;12.10;78.90;;;;;;5045665;28;20025;-84
2021/04/01 05:00:23;;;;;;;32.33;17.98;;;12.10;78.80;;;;;;5045542;28;20032;-83
2021/04/01 05:05:33;;;;;;;37.92;20.45;;;12.20;78.50;;;;;;5031767;28;20484;-83
2021/04/01 05:07:59;;;;;;;32.83;18.80;;;12.20;78.60;;;;;;5036508;28;20037;-83
2021/04/01 05:10:25;;;;;;;33.28;19.40;;;12.20;78.60;;;;;;5026148;28;20075;-83
2021/04/01 05:13:09;;;;;;;33.40;17.65;;;12.20;78.40;;;;;;5030102;28;20553;-84
2021/04/01 05:15:39;;;;;;;37.40;20.42;;;12.10;78.80;;;;;;5019042;28;20032;-83
2021/04/01 05:18:23;;;;;;;33.95;19.27;;;12.10;79.30;;;;;;5032291;28;20524;-84
2021/04/01 05:20:51;;;;;;;29.75;18.33;;;12.00;79.30;;;;;;5032005;28;20025;-84
2021/04/01 05:23:30;;;;;;;29.98;17.75;;;11.90;79.50;;;;;;5048045;28;20474;-84
2021/04/01 05:28:33;;;;;;;31.73;16.30;;;11.90;79.90;;;;;;5032368;28;20480;-83
2021/04/01 05:31:01;;;;;;;27.50;16.35;;;11.90;79.90;;;;;;5032131;28;20026;-83
2021/04/01 05:33:32;;;;;;;30.67;16.52;;;11.80;80.10;;;;;;5032380;28;20021;-84
2021/04/01 05:36:00;;;;;;;27.40;15.65;;;11.70;80.30;;;;;;5047932;28;20022;-83
2021/04/01 05:38:25;;;;;;;30.85;16.30;;;11.80;80.30;;;;;;5047892;28;20021;-85
2021/04/01 05:40:51;;;;;;;28.10;16.20;;;11.80;80.50;;;;;;5032422;28;20107;-83
2021/04/01 05:43:20;;;;;;;29.25;16.08;;;11.80;80.50;;;;;;5047973;28;20025;-83
2021/04/01 05:45:52;;;;;;;28.20;14.93;;;11.80;80.40;;;;;;5047877;28;20460;-84
2021/04/01 05:48:28;;;;;;;23.27;14.52;;;11.90;80.50;;;;;;5050714;28;20025;-83
2021/04/01 05:51:30;;;;;;;29.83;14.48;;;11.90;80.50;;;;;;5048312;28;20485;-83
2021/04/01 05:54:44;;;;;;;36.72;18.25;;;11.80;80.60;;;;;;5034877;28;20107;-83
2021/04/01 06:00:29;;;;;;;32.33;17.95;;;11.80;80.80;;;;;;5036578;28;20032;-84
2021/04/01 06:05:47;;;;;;;33.95;19.35;;;11.80;81.10;;;;;;5035581;28;20063;-86
2021/04/01 06:08:17;;;;;;;28.95;17.38;;;11.80;81.30;;;;;;5020942;28;20116;-86
2021/04/01 06:10:43;;;;;;;;;;;11.70;81.60;;;;;;5017564;28;20033;-86
2021/04/01 06:13:11;;;;;;;24.15;14.52;;;11.70;81.60;;;;;;5034072;28;19999;-86
2021/04/01 06:15:37;;;;;;;26.92;15.48;;;11.70;82.10;;;;;;5023119;28;20492;-86
2021/04/01 06:18:12;;;;;;;31.73;16.15;;;11.70;82.20;;;;;;5034966;28;20061;-86
2021/04/01 06:20:40;;;;;;;31.95;16.65;;;11.80;82.30;;;;;;5034851;28;20393;-86
2021/04/01 06:23:05;;;;;;;27.20;15.50;;;11.80;82.20;;;;;;5034708;28;20026;-86
2021/04/01 06:25:34;;;;;;;25.73;14.85;;;11.90;82.00;;;;;;5035790;28;20025;-86
2021/04/01 06:28:04;;;;;;;24.67;14.20;;;11.90;81.90;;;;;;5034362;28;20091;-86
2021/04/01 06:30:37;;;;;;;28.50;16.92;;;12.00;81.90;;;;;;5034066;28;20025;-86
2021/04/01 06:33:12;;;;;;;26.55;15.82;;;12.10;82.00;;;;;;5026027;28;20129;-86
2021/04/01 06:35:46;;;;;;;27.95;14.82;;;12.20;81.70;;;;;;5034981;28;20013;-86
2021/04/01 06:40:48;;;;;;;40.40;20.02;;;12.40;81.20;;;;;;5035119;28;20122;-86
2021/04/01 06:43:17;;;;;;;41.80;21.75;;;12.40;80.80;;;;;;5021111;28;20120;-87
2021/04/01 06:45:59;;;;;;;43.45;23.83;;;12.50;80.60;;;;;;5035699;28;20104;-88
2021/04/01 06:51:13;;;;;;;40.72;20.88;;;12.60;80.20;;;;;;5029278;28;20025;-83
2021/04/01 06:53:52;;;;;;;45.45;21.80;;;12.70;80.10;;;;;;5034404;28;20044;-83
2021/04/01 07:01:45;;;;;;;53.90;25.65;;;12.90;80.10;;;;;;5035087;28;20025;-84
2021/04/01 07:04:13;;;;;;;58.15;28.10;;;12.90;80.40;;;;;;5033655;28;20021;-84
2021/04/01 07:06:42;;;;;;;59.03;28.10;;;13.00;80.60;;;;;;5033571;28;20064;-83
2021/04/01 07:12:13;;;;;;;67.65;32.92;;;13.10;80.70;;;;;;5034950;28;20100;-83
2021/04/01 07:14:40;;;;;;;;;;;13.10;81.10;;;;;;5033531;28;20053;-84
2021/04/01 07:17:38;;;;;;;71.65;35.60;;;13.00;81.50;;;;;;5034600;28;20360;-83
2021/04/01 07:20:29;;;;;;;63.22;31.73;;;13.00;82.10;;;;;;5034027;28;20037;-83
2021/04/01 07:23:23;;;;;;;69.65;34.70;;;13.10;82.10;;;;;;5032738;28;20054;-83
2021/04/01 07:35:20;;;;;;;69.65;34.22;;;13.20;82.40;;;;;;5033245;28;20037;-83
2021/04/01 07:48:19;;;;;;;89.57;44.53;;;13.40;83.90;;;;;;5014376;28;20057;-83
2021/04/01 07:50:44;;;;;;;84.50;43.67;;;13.40;84.00;;;;;;5012943;28;20080;-83
2021/04/01 07:53:14;;;;;;;76.57;40.22;;;13.50;84.20;;;;;;5012914;28;20034;-84
2021/04/01 07:56:28;;;;;;;86.50;44.00;;;13.50;84.00;;;;;;5022708;28;20440;-83
2021/04/01 07:58:57;;;;;;;95.13;47.58;;;13.60;84.20;;;;;;5029222;28;20038;-82
2021/04/01 08:01:46;;;;;;;83.13;41.28;;;13.60;84.60;;;;;;5033924;28;20024;-83
2021/04/01 08:04:12;;;;;;;93.20;47.25;;;13.60;84.60;;;;;;5025582;28;20408;-83
2021/04/01 08:06:37;;;;;;;82.22;42.17;;;13.60;84.90;;;;;;5015863;28;20030;-84
2021/04/01 08:09:07;;;;;;;77.65;40.47;;;13.70;84.90;;;;;;5019635;28;20061;-83
2021/04/01 08:11:42;;;;;;;86.70;45.53;;;13.80;84.60;;;;;;5031591;28;20029;-84
2021/04/01 08:14:36;;;;;;;79.07;39.70;;;13.90;84.50;;;;;;5032054;28;20037;-84
2021/04/01 08:17:19;;;;;;;86.00;45.08;;;14.00;84.30;;;;;;5030060;28;20081;-84
2021/04/01 08:19:48;;;;;;;97.20;47.17;;;14.00;84.20;;;;;;5032124;28;20030;-83
2021/04/01 08:22:23;;;;;;;;;;;14.10;84.30;;;;;;5033841;28;20536;-83
2021/04/01 08:24:52;;;;;;;86.65;42.55;;;14.10;84.10;;;;;;5031862;28;19905;-84
2021/04/01 08:27:30;;;;;;;80.20;40.83;;;14.20;84.30;;;;;;5031817;28;20338;-84
2021/04/01 08:35:31;;;;;;;99.15;48.90;;;14.50;83.40;;;;;;5038764;28;20036;-83
2021/04/01 08:38:20;;;;;;;101.03;52.35;;;14.60;83.10;;;;;;5031838;28;20052;-86
2021/04/01 08:40:45;;;;;;;100.30;49.72;;;14.70;82.80;;;;;;5031748;28;20471;-84
2021/04/01 08:43:36;;;;;;;93.53;50.20;;;14.70;82.70;;;;;;5031387;28;20105;-84
2021/04/01 08:46:32;;;;;;;86.82;47.88;;;14.80;82.00;;;;;;5031680;28;20029;-84
2021/04/01 08:49:19;;;;;;;91.28;50.03;;;14.90;81.60;;;;;;5031446;28;20026;-83
2021/04/01 08:52:22;;;;;;;78.82;43.00;;;15.10;80.70;;;;;;5031751;28;20017;-84
2021/04/01 08:55:02;;;;;;;99.68;52.03;;;15.30;80.10;;;;;;5032604;28;20053;-83
2021/04/01 08:57:53;;;;;;;;;;;15.40;79.00;;;;;;5032188;28;20033;-84
2021/04/01 09:00:20;;;;;;;81.47;44.75;;;15.50;78.90;;;;;;5048249;28;20295;-84
2021/04/01 09:02:51;;;;;;;78.22;44.58;;;15.60;78.60;;;;;;5031496;28;20025;-83
2021/04/01 09:05:19;;;;;;;82.95;45.67;;;15.80;78.10;;;;;;5032886;28;20056;-84
2021/04/01 09:07:48;;;;;;;89.85;47.45;;;15.90;77.60;;;;;;5031526;28;20032;-84
2021/04/01 09:10:31;;;;;;;86.78;47.88;;;16.00;76.50;;;;;;5032811;28;20052;-84
2021/04/01 09:18:01;;;;;;;84.03;46.33;;;16.20;75.70;;;;;;5032899;28;20105;-84
2021/04/01 09:20:27;;;;;;;78.28;44.95;;;16.40;76.00;;;;;;5031505;28;20504;-84
2021/04/01 09:23:03;;;;;;;87.32;48.22;;;16.80;75.80;;;;;;5034819;28;20025;-84
2021/04/01 09:25:37;;;;;;;72.85;44.08;;;18.20;72.20;;;;;;5035416;28;20409;-84
2021/04/01 09:28:06;;;;;;;68.95;40.30;;;19.80;68.10;;;;;;5035514;28;20037;-84
2021/04/01 09:30:31;;;;;;;74.95;45.50;;;21.00;64.80;;;;;;5036742;28;20029;-84
2021/04/01 09:33:06;;;;;;;83.80;48.75;;;21.90;60.70;;;;;;5035062;28;20018;-84
2021/04/01 09:35:33;;;;;;;66.38;42.20;;;22.30;57.70;;;;;;5035156;28;20400;-84
2021/04/01 09:38:07;;;;;;;72.05;44.08;;;23.00;57.40;;;;;;5035332;28;20040;-84
2021/04/01 09:40:44;;;;;;;69.93;43.95;;;23.80;54.70;;;;;;5035751;28;20060;-84
2021/04/01 09:43:16;;;;;;;58.78;39.72;;;24.50;52.90;;;;;;5035134;28;20037;-84
2021/04/01 09:45:43;;;;;;;61.10;40.17;;;25.10;51.70;;;;;;5034637;28;20048;-84
2021/04/01 09:48:11;;;;;;;83.07;53.95;;;25.40;50.20;;;;;;5033614;28;20124;-84
2021/04/01 09:50:40;;;;;;;63.03;43.17;;;25.60;48.10;;;;;;5033793;28;20064;-84
2021/04/01 09:53:12;;;;;;;64.55;44.63;;;25.80;48.00;;;;;;5033493;28;20125;-84
2021/04/01 09:55:41;;;;;;;57.20;40.25;;;25.80;47.00;;;;;;5034438;28;20112;-84
2021/04/01 09:58:37;;;;;;;62.17;41.72;;;26.10;46.70;;;;;;5027886;28;20037;-84
2021/04/01 10:01:47;;;;;;;75.97;52.47;;;26.50;46.00;;;;;;5032279;28;20017;-84
2021/04/01 10:04:05;;;;;;;70.38;51.42;;;26.80;43.30;;;;;;5016918;28;20029;-85
2021/04/01 10:06:37;;;;;;;62.42;45.03;;;26.50;42.50;;;;;;5034379;28;20071;-86
2021/04/01 10:09:15;;;;;;;51.33;36.83;;;26.80;42.90;;;;;;5032003;28;20033;-85
2021/04/01 10:11:53;;;;;;;61.65;44.22;;;27.40;43.20;;;;;;5032304;28;20018;-85
2021/04/01 10:14:20;;;;;;;62.50;46.10;;;27.90;42.40;;;;;;5032962;28;20108;-86
2021/04/01 10:17:05;;;;;;;58.60;43.42;;;27.80;41.20;;;;;;5033008;28;20175;-85
2021/04/01 10:19:38;;;;;;;66.38;46.63;;;27.90;41.50;;;;;;5033323;28;20028;-84
2021/04/01 10:22:05;;;;;;;54.55;40.15;;;27.90;40.80;;;;;;5034686;28;20030;-85
2021/04/01 10:24:37;;;;;;;47.22;34.92;;;28.20;40.80;;;;;;5034935;28;20021;-85
2021/04/01 10:27:09;;;;;;;53.50;38.50;;;28.80;41.10;;;;;;5030767;28;20053;-84
2021/04/01 10:32:12;;;;;;;49.90;36.85;;;29.70;39.40;;;;;;5034450;28;20030;-84
2021/04/01 10:34:56;;;;;;;43.55;33.38;;;30.00;39.10;;;;;;5032491;28;20493;-84
2021/04/01 10:37:23;;;;;;;40.63;30.60;;;30.30;37.50;;;;;;5027112;28;20032;-83
2021/04/01 10:39:50;;;;;;;47.25;36.10;;;29.90;37.80;;;;;;5013463;28;533683;-84
2021/04/01 10:42:25;;;;;;;39.50;28.23;;;29.80;37.40;;;;;;5034376;28;20027;-84
2021/04/01 10:45:00;;;;;;;49.40;34.85;;;29.90;37.60;;;;;;5034237;28;20032;-83
2021/04/01 10:47:37;;;;;;;38.17;30.02;;;29.70;37.10;;;;;;5034640;28;20120;-84
2021/04/01 10:50:03;;;;;;;39.35;28.30;;;29.90;36.90;;;;;;5033038;28;20100;-84
2021/04/01 10:52:33;;;;;;;31.10;23.77;;;29.60;36.70;;;;;;5030683;28;20175;-84
2021/04/01 10:54:59;;;;;;;28.20;20.95;;;30.00;37.10;;;;;;5030851;28;20030;-85
2021/04/01 10:57:30;;;;;;;29.70;21.90;;;30.30;36.60;;;;;;5031082;28;20026;-84
2021/04/01 10:59:59;;;;;;;29.92;22.30;;;30.60;35.90;;;;;;5030955;28;20018;-84
2021/04/01 11:02:34;;;;;;;23.15;16.67;;;30.90;35.40;;;;;;5026830;28;20018;-84
2021/04/01 11:05:13;;;;;;;24.23;17.23;;;31.40;35.20;;;;;;5032439;28;20106;-84
2021/04/01 11:07:48;;;;;;;21.08;15.32;;;31.40;34.40;;;;;;5034349;28;20376;-84
2021/04/01 11:10:22;;;;;;;20.70;13.88;;;31.50;35.00;;;;;;5033236;28;20030;-84
2021/04/01 11:12:54;;;;;;;17.88;13.60;;;31.80;35.00;;;;;;5034089;28;20036;-84
2021/04/01 11:15:23;;;;;;;19.35;11.50;;;32.30;34.40;;;;;;5027376;28;20026;-84
2021/04/01 11:18:14;;;;;;;20.20;14.05;;;31.90;33.90;;;;;;5029628;28;20022;-85
2021/04/01 11:20:42;;;;;;;20.45;13.13;;;32.60;33.50;;;;;;5015111;28;20366;-85
2021/04/01 11:23:09;;;;;;;13.65;9.25;;;33.10;33.20;;;;;;5029885;28;20465;-85
2021/04/01 11:25:36;;;;;;;14.77;10.18;;;33.30;33.00;;;;;;5035681;28;20036;-85
2021/04/01 11:28:03;;;;;;;14.00;9.30;;;33.20;32.10;;;;;;5033362;28;20057;-84
2021/04/01 11:30:50;;;;;;;12.27;8.40;;;33.40;31.60;;;;;;5031803;28;20046;-85
2021/04/01 11:33:18;;;;;;;11.85;8.25;;;33.70;31.40;;;;;;5030416;28;20029;-85
2021/04/01 11:35:47;;;;;;;9.32;6.38;;;33.80;31.40;;;;;;5049344;28;20396;-85
2021/04/01 11:38:23;;;;;;;13.30;8.93;;;33.80;31.70;;;;;;5049830;28;20063;-85
2021/04/01 11:41:00;;;;;;;9.88;5.80;;;33.80;31.00;;;;;;5049372;28;20519;-82
2021/04/01 11:43:29;;;;;;;6.18;4.00;;;34.10;31.00;;;;;;5034243;28;20057;-83
2021/04/01 11:45:54;;;;;;;8.40;3.80;;;34.80;30.80;;;;;;5048605;28;20112;-84
2021/04/01 11:48:20;;;;;;;6.63;3.67;;;35.30;30.30;;;;;;5034026;28;20513;-84
2021/04/01 11:50:46;;;;;;;6.30;3.50;;;35.30;30.30;;;;;;5049179;28;20091;-84
2021/04/01 11:53:12;;;;;;;4.13;2.13;;;35.30;29.70;;;;;;5049292;28;20061;-84
2021/04/01 11:55:52;;;;;;;5.35;2.95;;;35.50;30.00;;;;;;5032548;28;20056;-84
2021/04/01 11:58:18;;;;;;;4.93;2.67;;;35.80;29.60;;;;;;5032797;28;20075;-84
2021/04/01 12:00:45;;;;;;;4.93;2.80;;;35.80;29.80;;;;;;5049125;28;20053;-84
2021/04/01 12:03:15;;;;;;;5.10;2.38;;;36.00;29.00;;;;;;5041355;28;20477;-83
2021/04/01 12:05:44;;;;;;;4.50;2.05;;;35.70;29.40;;;;;;5032747;28;20112;-84
2021/04/01 12:08:10;;;;;;;4.22;1.73;;;35.60;29.60;;;;;;5029280;28;20028;-84
2021/04/01 12:10:36;;;;;;;6.45;2.22;;;35.40;30.00;;;;;;5033297;28;20020;-84
2021/04/01 12:13:02;;;;;;;4.25;2.22;;;35.20;29.80;;;;;;5023612;28;20021;-84
2021/04/01 12:15:29;;;;;;;4.32;2.10;;;34.90;30.20;;;;;;5031602;28;20032;-84
2021/04/01 12:17:56;;;;;;;4.72;2.03;;;35.00;30.00;;;;;;5033041;28;20127;-84
2021/04/01 12:20:23;;;;;;;7.20;2.05;;;34.20;30.00;;;;;;5032499;28;20021;-84
2021/04/01 12:22:49;;;;;;;3.10;1.63;;;34.10;30.50;;;;;;5040095;28;20026;-84
2021/04/01 12:25:18;;;;;;;4.57;2.05;;;34.20;30.40;;;;;;5032741;28;20064;-83
2021/04/01 12:27:55;;;;;;;4.32;1.83;;;34.30;30.00;;;;;;5023440;28;20034;-83
2021/04/01 12:30:24;;;;;;;3.25;1.73;;;34.10;30.20;;;;;;5032950;28;20482;-83
2021/04/01 12:32:51;;;;;;;4.65;1.73;;;34.20;30.50;;;;;;5029033;28;20083;-84
2021/04/01 12:35:18;;;;;;;5.50;1.85;;;33.80;30.60;;;;;;5023234;28;20448;-83
2021/04/01 12:37:55;;;;;;;4.32;1.75;;;33.20;30.30;;;;;;5032792;28;20021;-84
2021/04/01 12:40:21;;;;;;;5.00;1.83;;;32.60;31.00;;;;;;5031577;28;20073;-83
2021/04/01 12:42:47;;;;;;;5.20;1.73;;;32.40;31.90;;;;;;5031316;28;20103;-83
2021/04/01 12:45:17;;;;;;;4.07;1.65;;;32.60;31.50;;;;;;5031260;28;20025;-83
2021/04/01 12:47:43;;;;;;;4.85;1.77;;;32.50;31.80;;;;;;5032609;28;20424;-84
2021/04/01 12:50:10;;;;;;;5.72;1.95;;;33.30;31.60;;;;;;5029901;28;20040;-84
2021/04/01 12:52:47;;;;;;;6.22;2.30;;;33.70;31.10;;;;;;5032708;28;20024;-84
2021/04/01 12:55:27;;;;;;;7.03;2.60;;;33.60;30.60;;;;;;5030264;28;20108;-84
2021/04/01 12:57:52;;;;;;;6.45;2.47;;;33.70;30.40;;;;;;5030318;28;20087;-84
2021/04/01 13:00:29;;;;;;;4.90;1.95;;;33.40;30.50;;;;;;5031235;28;20469;-83
2021/04/01 13:02:55;;;;;;;5.18;1.95;;;33.50;30.60;;;;;;5030595;28;20119;-84
2021/04/01 13:05:21;;;;;;;5.45;2.15;;;33.40;30.90;;;;;;5030772;28;20104;-83
2021/04/01 13:11:03;;;;;;;4.38;1.80;;;33.10;30.70;;;;;;5030156;28;20014;-83
2021/04/01 13:13:03;;;;;;;6.78;2.20;;;32.90;30.80;;;;;;5027361;28;20056;-84
2021/04/01 13:15:29;;;;;;;5.03;1.92;;;32.60;31.50;;;;;;5040657;28;20021;-84
2021/04/01 13:17:54;;;;;;;8.32;2.08;;;32.30;31.40;;;;;;5030330;28;20408;-83
2021/04/01 13:20:20;;;;;;;6.35;2.55;;;32.40;32.00;;;;;;5034025;28;20112;-83
2021/04/01 13:25:28;;;;;;;5.60;2.17;;;32.10;31.80;;;;;;5032176;28;20051;-84
2021/04/01 13:27:59;;;;;;;5.25;1.98;;;32.00;31.60;;;;;;5031146;28;20477;-84
2021/04/01 13:30:25;;;;;;;5.88;1.73;;;32.00;31.80;;;;;;5031920;28;20477;-84
2021/04/01 13:33:13;;;;;;;4.72;1.73;;;32.10;31.80;;;;;;5032635;28;20021;-83
2021/04/01 13:35:47;;;;;;;3.92;1.15;;;31.80;31.30;;;;;;5032480;28;20473;-84
2021/04/01 13:38:15;;;;;;;3.65;1.55;;;31.90;31.80;;;;;;5032598;28;20033;-84
2021/04/01 13:40:48;;;;;;;3.65;1.08;;;31.70;31.90;;;;;;5030960;28;20053;-83
2021/04/01 13:43:16;;;;;;;2.92;1.05;;;32.10;31.90;;;;;;5047941;28;20022;-83
2021/04/01 13:45:42;;;;;;;;;;;32.50;31.70;;;;;;5044635;28;20064;-83
2021/04/01 13:48:18;;;;;;;3.78;1.05;;;32.40;31.90;;;;;;5035704;28;20320;-86
2021/04/01 13:50:56;;;;;;;2.38;1.15;;;31.90;31.50;;;;;;5031299;28;20033;-85
2021/04/01 13:56:16;;;;;;;3.67;1.40;;;31.40;30.70;;;;;;5032357;28;20354;-83
2021/04/01 14:08:53;;;;;;;4.68;1.70;;;30.70;32.40;;;;;;5003933;28;20033;-83
2021/04/01 14:09:57;;;;;;;2.75;0.77;;;30.50;31.90;;;;;;5035811;28;20083;-83
2021/04/01 14:12:24;;;;;;;3.25;1.40;;;29.60;32.00;;;;;;5034543;28;20477;-85